createdAt,value
2019-05-15T19:13:15.190Z,16.5
2019-05-15T19:14:18.999Z,16.3
2019-05-15T19:15:39.327Z,16.3
2019-05-15T19:16:41.671Z,16.3
2019-05-15T19:17:43.023Z,16.2
2019-05-15T19:18:44.617Z,16.2
2019-05-15T19:19:48.030Z,16.2
2019-05-15T19:20:48.666Z,16.2
2019-05-15T19:21:50.038Z,16.1
2019-05-15T19:22:51.476Z,16.1
2019-05-15T19:23:53.428Z,16.0
2019-05-15T19:24:54.828Z,16.0
2019-05-15T19:25:57.790Z,15.9
2019-05-15T19:26:58.658Z,15.9
2019-05-15T19:27:59.535Z,15.9
2019-05-15T19:29:01.294Z,15.8
2019-05-15T19:30:02.688Z,15.8
2019-05-15T19:31:04.081Z,15.8
2019-05-15T19:32:08.246Z,15.8
2019-05-15T19:33:07.849Z,15.8
2019-05-15T19:34:08.866Z,15.8
2019-05-15T19:35:10.301Z,15.7
2019-05-15T19:36:11.654Z,15.6
2019-05-15T19:37:13.730Z,15.7
2019-05-15T19:38:15.127Z,15.6
2019-05-15T19:39:18.471Z,15.6
2019-05-15T19:40:18.704Z,15.6
2019-05-15T19:41:19.699Z,15.5
2019-05-15T19:42:21.415Z,15.5
2019-05-15T19:43:22.806Z,15.5
2019-05-15T19:44:24.203Z,15.5
2019-05-15T19:45:27.762Z,15.6
2019-05-15T19:46:28.315Z,15.5
2019-05-15T19:47:28.755Z,15.5
2019-05-15T19:48:30.192Z,15.4
2019-05-15T19:49:31.626Z,15.4
2019-05-15T19:50:34.245Z,15.4
2019-05-15T19:51:37.965Z,15.4
2019-05-15T19:52:37.508Z,15.4
2019-05-15T19:53:38.930Z,15.3
2019-05-15T19:54:40.298Z,15.3
2019-05-15T19:55:41.848Z,15.3
2019-05-15T19:56:43.241Z,15.3
2019-05-15T19:57:44.640Z,15.3
2019-05-15T19:58:46.594Z,15.3
2019-05-15T19:59:48.823Z,15.3
2019-05-15T20:00:51.490Z,15.2
2019-05-15T20:01:50.708Z,15.2
2019-05-15T20:02:52.211Z,15.2
2019-05-15T20:03:53.614Z,15.1
2019-05-15T20:04:55.057Z,15.1
2019-05-15T20:05:57.742Z,15.1
2019-05-15T20:06:57.830Z,15.1
2019-05-15T20:07:59.232Z,15.2
2019-05-15T20:09:00.625Z,15.0
2019-05-15T20:10:02.015Z,15.1
2019-05-15T20:11:03.636Z,15.1
2019-05-15T20:12:04.994Z,15.0
2019-05-15T20:13:06.574Z,15.0
2019-05-15T20:14:07.976Z,15.0
2019-05-15T20:15:09.462Z,14.9
2019-05-15T20:16:10.719Z,15.0
2019-05-15T20:17:13.073Z,15.0
2019-05-15T20:18:14.679Z,14.9
2019-05-15T20:19:17.991Z,14.8
2019-05-15T20:20:18.690Z,14.9
2019-05-15T20:21:18.777Z,14.8
2019-05-15T20:22:20.177Z,14.9
2019-05-15T20:23:21.570Z,14.7
2019-05-15T20:24:23.249Z,14.8
2019-05-15T20:25:24.631Z,14.7
2019-05-15T20:26:28.441Z,14.8
2019-05-15T20:27:28.201Z,14.7
2019-05-15T20:28:28.733Z,14.7
2019-05-15T20:29:30.094Z,14.6
2019-05-15T20:30:31.486Z,14.6
2019-05-15T20:31:33.193Z,14.6
2019-05-15T20:32:34.591Z,14.6
2019-05-15T20:33:37.753Z,14.5
2019-05-15T20:34:37.915Z,14.5
2019-05-15T20:35:38.762Z,14.5
2019-05-15T20:36:40.192Z,14.4
2019-05-15T20:37:42.124Z,14.4
2019-05-15T20:38:42.957Z,14.3
2019-05-15T20:39:44.362Z,14.4
2019-05-15T20:40:45.748Z,14.4
2019-05-15T20:41:48.600Z,14.4
2019-05-15T20:42:48.571Z,14.3
2019-05-15T20:43:49.973Z,14.3
2019-05-15T20:44:51.361Z,14.3
2019-05-15T20:45:52.838Z,14.3
2019-05-15T20:46:54.249Z,14.2
2019-05-15T20:47:55.635Z,14.2
2019-05-15T20:48:58.114Z,14.1
2019-05-15T20:49:58.421Z,14.1
2019-05-15T20:50:59.819Z,14.2
2019-05-15T20:52:01.231Z,14.2
2019-05-15T20:53:02.626Z,14.1
2019-05-15T20:54:04.016Z,14.1
2019-05-15T20:55:07.553Z,14.0
2019-05-15T20:56:08.203Z,14.0
2019-05-15T20:57:08.805Z,14.1
2019-05-15T20:58:09.507Z,14.0
2019-05-15T20:59:10.950Z,14.0
2019-05-15T21:00:12.346Z,14.0
2019-05-15T21:01:13.746Z,14.0
2019-05-15T21:02:15.133Z,13.9
2019-05-15T21:03:17.940Z,14.0
2019-05-15T21:04:22.284Z,13.9
2019-05-15T21:05:19.248Z,13.9
2019-05-15T21:06:20.636Z,14.0
2019-05-15T21:07:34.707Z,13.9
2019-05-15T21:08:23.380Z,13.9
2019-05-15T21:09:24.773Z,14.0
2019-05-15T21:10:26.164Z,13.9
2019-05-15T21:11:27.552Z,13.9
2019-05-15T21:12:29.860Z,13.8
2019-05-15T21:13:30.328Z,13.9
2019-05-15T21:14:31.723Z,13.9
2019-05-15T21:15:33.119Z,13.9
2019-05-15T21:16:34.509Z,13.9
2019-05-15T21:17:35.906Z,13.9
2019-05-15T21:18:37.978Z,13.8
2019-05-15T21:19:38.698Z,13.9
2019-05-15T21:20:40.048Z,13.9
2019-05-15T21:21:41.403Z,13.8
2019-05-15T21:22:42.808Z,13.8
2019-05-15T21:23:44.215Z,13.7
2019-05-15T21:24:45.601Z,13.8
2019-05-15T21:25:48.456Z,13.7
2019-05-15T21:26:48.832Z,13.8
2019-05-15T21:27:49.819Z,13.8
2019-05-15T21:28:51.293Z,13.8
2019-05-15T21:29:52.683Z,13.7
2019-05-15T21:30:54.041Z,13.8
2019-05-15T21:31:57.854Z,13.7
2019-05-15T21:32:58.243Z,13.7
2019-05-15T21:33:58.876Z,13.7
2019-05-15T21:34:59.634Z,13.7
2019-05-15T21:36:01.054Z,13.7
2019-05-15T21:37:02.512Z,13.7
2019-05-15T21:38:03.901Z,13.7
2019-05-15T21:39:05.342Z,13.7
2019-05-15T21:40:08.220Z,13.7
2019-05-15T21:41:09.094Z,13.7
2019-05-15T21:42:10.483Z,13.7
2019-05-15T21:43:11.869Z,13.7
2019-05-15T21:44:13.288Z,13.7
2019-05-15T21:45:14.815Z,13.7
2019-05-15T21:46:16.052Z,13.6
2019-05-15T21:47:18.883Z,13.6
2019-05-15T21:48:18.822Z,13.6
2019-05-15T21:49:20.244Z,13.6
2019-05-15T21:50:21.699Z,13.7
2019-05-15T21:51:23.112Z,13.7
2019-05-15T21:52:24.546Z,13.6
2019-05-15T21:53:28.501Z,13.7
2019-05-15T21:54:28.183Z,13.7
2019-05-15T21:55:28.839Z,13.7
2019-05-15T21:56:30.082Z,13.7
2019-05-15T21:57:36.390Z,13.6
2019-05-15T21:58:32.806Z,13.7
2019-05-15T21:59:34.198Z,13.6
2019-05-15T22:00:38.034Z,13.6
2019-05-15T22:01:39.473Z,13.6
2019-05-15T22:02:38.826Z,13.6
2019-05-15T22:03:39.681Z,13.6
2019-05-15T22:04:51.932Z,13.7
2019-05-15T22:05:42.458Z,13.6
2019-05-15T22:06:43.860Z,13.6
2019-05-15T22:07:45.233Z,13.6
2019-05-15T22:08:46.643Z,13.6
2019-05-15T22:09:48.704Z,13.6
2019-05-15T22:10:49.416Z,13.6
2019-05-15T22:11:50.814Z,13.6
2019-05-15T22:12:52.199Z,13.6
2019-05-15T22:13:53.611Z,13.6
2019-05-15T22:14:54.962Z,13.7
2019-05-15T22:15:58.756Z,13.5
2019-05-15T22:16:59.757Z,13.5
2019-05-15T22:17:59.160Z,13.6
2019-05-15T22:19:00.566Z,13.5
2019-05-15T22:20:01.964Z,13.5
2019-05-15T22:21:03.347Z,13.5
2019-05-15T22:22:04.774Z,13.5
2019-05-15T22:23:08.087Z,13.5
2019-05-15T22:24:08.728Z,13.5
2019-05-15T22:25:11.397Z,13.4
2019-05-15T22:26:10.325Z,13.5
2019-05-15T22:27:11.719Z,13.4
2019-05-15T22:28:13.127Z,13.5
2019-05-15T22:29:14.515Z,13.4
2019-05-15T22:30:15.947Z,13.4
2019-05-15T22:31:17.334Z,13.4
2019-05-15T22:32:18.706Z,13.5
2019-05-15T22:33:20.088Z,13.4
2019-05-15T22:34:21.475Z,13.4
2019-05-15T22:35:22.862Z,13.4
2019-05-15T22:36:24.283Z,13.4
2019-05-15T22:37:25.722Z,13.3
2019-05-15T22:38:28.516Z,13.4
2019-05-15T22:39:28.518Z,13.3
2019-05-15T22:40:29.877Z,13.3
2019-05-15T22:41:31.277Z,13.3
2019-05-15T22:42:32.680Z,13.2
2019-05-15T22:43:34.103Z,13.2
2019-05-15T22:44:35.501Z,13.3
2019-05-15T22:45:37.706Z,13.1
2019-05-15T22:46:38.333Z,13.2
2019-05-15T22:47:39.637Z,13.2
2019-05-15T22:48:41.013Z,13.3
2019-05-15T22:49:42.366Z,13.2
2019-05-15T22:50:43.764Z,13.1
2019-05-15T22:51:45.152Z,13.1
2019-05-15T22:52:48.967Z,13.0
2019-05-15T22:53:48.821Z,13.1
2019-05-15T22:54:49.300Z,13.1
2019-05-15T22:55:50.688Z,13.0
2019-05-15T22:56:52.082Z,13.1
2019-05-15T22:57:53.443Z,13.1
2019-05-15T22:58:54.839Z,13.0
2019-05-15T22:59:58.049Z,13.1
2019-05-15T23:00:59.796Z,13.0
2019-05-15T23:01:58.980Z,12.9
2019-05-15T23:03:00.405Z,13.0
2019-05-15T23:04:01.798Z,12.9
2019-05-15T23:05:03.215Z,12.9
2019-05-15T23:06:04.616Z,12.9
2019-05-15T23:07:07.998Z,13.0
2019-05-15T23:08:07.326Z,13.0
2019-05-15T23:09:08.727Z,12.9
2019-05-15T23:10:10.202Z,12.9
2019-05-15T23:11:11.599Z,12.9
2019-05-15T23:12:12.991Z,12.9
2019-05-15T23:13:14.382Z,12.8
2019-05-15T23:14:17.984Z,12.8
2019-05-15T23:15:18.915Z,12.9
2019-05-15T23:16:18.567Z,12.8
2019-05-15T23:17:19.961Z,12.8
2019-05-15T23:18:21.383Z,12.7
2019-05-15T23:19:22.787Z,12.7
2019-05-15T23:20:24.177Z,12.7
2019-05-15T23:21:25.584Z,12.7
2019-05-15T23:22:27.949Z,12.7
2019-05-15T23:23:28.687Z,12.7
2019-05-15T23:24:29.702Z,12.7
2019-05-15T23:25:31.093Z,12.7
2019-05-15T23:26:32.512Z,12.7
2019-05-15T23:27:33.917Z,12.7
2019-05-15T23:28:35.312Z,12.7
2019-05-15T23:29:38.330Z,12.8
2019-05-15T23:30:38.115Z,12.7
2019-05-15T23:31:39.524Z,12.6
2019-05-15T23:32:40.962Z,12.6
2019-05-15T23:33:42.354Z,12.5
2019-05-15T23:34:43.783Z,12.5
2019-05-15T23:35:45.188Z,12.6
2019-05-15T23:36:48.222Z,12.6
2019-05-15T23:37:48.639Z,12.5
2019-05-15T23:38:49.346Z,12.4
2019-05-15T23:39:50.738Z,12.4
2019-05-15T23:40:52.136Z,12.5
2019-05-15T23:41:53.545Z,12.5
2019-05-15T23:42:54.934Z,12.4
2019-05-15T23:43:56.339Z,12.5
2019-05-15T23:44:57.753Z,12.4
2019-05-15T23:45:59.160Z,12.4
2019-05-15T23:47:00.544Z,12.3
2019-05-15T23:48:01.983Z,12.4
2019-05-15T23:49:03.381Z,12.4
2019-05-15T23:50:04.778Z,12.3
2019-05-15T23:51:08.319Z,12.3
2019-05-15T23:52:08.924Z,12.3
2019-05-15T23:53:08.906Z,12.3
2019-05-15T23:54:10.301Z,12.2
2019-05-15T23:55:11.697Z,12.2
2019-05-15T23:56:13.117Z,12.2
2019-05-15T23:57:14.519Z,12.1
2019-05-15T23:58:18.658Z,12.1
2019-05-15T23:59:18.775Z,12.1
